Time;durP1;ratioP1;P1;durP2;ratioP2;P2;SDS_P1;SDS_P2;PMS_P1;PMS_P2;Temp;Humidity;BMP_temperature;BMP_pressure;BME280_temperature;BME280_humidity;BME280_pressure;Samples;Min_cycle;Max_cycle;Signal;HPM_P1;HPM_P2
2023/11/13 00:02:03;;;;;;;5.32;4.43;;;8.90;99.90;;;;;;5076547;28;20180;-80
2023/11/13 00:04:29;;;;;;;7.85;5.00;;;8.90;99.90;;;;;;5077352;28;20176;-79
2023/11/13 00:06:55;;;;;;;5.23;3.57;;;8.90;99.90;;;;;;5063164;28;20248;-79
2023/11/13 00:09:20;;;;;;;6.70;4.80;;;8.90;99.90;;;;;;5079025;28;20172;-79
2023/11/13 00:11:46;;;;;;;8.37;5.60;;;9.00;99.90;;;;;;5058668;28;20629;-79
2023/11/13 00:14:12;;;;;;;4.90;4.17;;;9.00;99.90;;;;;;5076697;28;20558;-79
2023/11/13 00:16:38;;;;;;;10.43;4.87;;;9.00;99.90;;;;;;5076213;28;20981;-79
2023/11/13 00:19:03;;;;;;;6.47;5.00;;;9.00;99.90;;;;;;5054798;28;20259;-79
2023/11/13 00:21:29;;;;;;;10.60;5.10;;;9.00;99.90;;;;;;5039222;28;20176;-79
2023/11/13 00:23:58;;;;;;;7.47;4.20;;;9.00;99.90;;;;;;5073795;28;20302;-80
2023/11/13 00:26:25;;;;;;;7.47;4.57;;;9.00;99.90;;;;;;5030321;28;20199;-79
2023/11/13 00:28:53;;;;;;;7.88;4.97;;;8.90;99.90;;;;;;5055731;28;20172;-79
2023/11/13 00:31:20;;;;;;;9.77;4.45;;;8.90;99.90;;;;;;5038826;28;20251;-79
2023/11/13 00:33:48;;;;;;;3.67;3.20;;;9.00;99.90;;;;;;5055572;28;20263;-79
2023/11/13 00:36:15;;;;;;;3.92;3.25;;;9.00;99.90;;;;;;5055355;28;20614;-79
2023/11/13 00:38:41;;;;;;;6.00;3.00;;;9.00;99.90;;;;;;5038762;28;20172;-79
2023/11/13 00:41:10;;;;;;;6.13;3.60;;;9.10;99.90;;;;;;5060979;28;20676;-79
2023/11/13 00:43:36;;;;;;;5.80;3.88;;;9.10;99.90;;;;;;5055213;28;20602;-79
2023/11/13 00:46:02;;;;;;;5.30;4.47;;;9.10;99.90;;;;;;5058287;28;20574;-79
2023/11/13 00:48:28;;;;;;;4.80;3.53;;;9.10;99.90;;;;;;5055002;28;20176;-80
2023/11/13 00:50:54;;;;;;;3.47;3.03;;;9.10;99.90;;;;;;5072793;28;20582;-79
2023/11/13 00:53:19;;;;;;;4.50;3.47;;;9.00;99.90;;;;;;5055092;28;20619;-79
2023/11/13 00:55:45;;;;;;;4.90;3.83;;;9.00;99.90;;;;;;5038107;28;20200;-79
2023/11/13 00:58:11;;;;;;;8.27;4.60;;;9.00;99.90;;;;;;5054901;28;20547;-79
2023/11/13 01:00:37;;;;;;;5.27;3.83;;;9.00;99.90;;;;;;5054689;28;20207;-79
2023/11/13 01:03:04;;;;;;;4.87;3.20;;;9.00;99.90;;;;;;5038508;28;20621;-79
2023/11/13 01:05:30;;;;;;;6.88;4.05;;;9.10;99.90;;;;;;5072671;28;20603;-79
2023/11/13 01:07:56;;;;;;;3.90;2.90;;;9.00;99.90;;;;;;5055209;28;20169;-79
2023/11/13 01:10:22;;;;;;;6.17;3.10;;;9.10;99.90;;;;;;5064029;28;20638;-79
2023/11/13 01:12:48;;;;;;;6.17;4.30;;;9.00;99.90;;;;;;5055209;28;20950;-79
2023/11/13 01:15:13;;;;;;;3.93;2.87;;;9.00;99.90;;;;;;5064942;28;20212;-79
2023/11/13 01:17:39;;;;;;;4.80;3.20;;;9.10;99.90;;;;;;5072849;28;20184;-79
2023/11/13 01:20:06;;;;;;;3.50;2.97;;;9.10;99.90;;;;;;5072470;28;20599;-79
2023/11/13 01:22:32;;;;;;;6.65;4.50;;;9.10;99.90;;;;;;5065490;28;20595;-79
2023/11/13 01:24:58;;;;;;;7.15;3.60;;;9.10;99.90;;;;;;5074847;28;20557;-79
2023/11/13 01:27:24;;;;;;;3.27;2.47;;;9.10;99.90;;;;;;5022555;28;20184;-79
2023/11/13 01:29:49;;;;;;;4.40;2.53;;;9.10;99.90;;;;;;5056213;28;20233;-79
2023/11/13 01:32:16;;;;;;;3.40;2.72;;;9.20;99.90;;;;;;5039963;28;20586;-79
2023/11/13 01:34:43;;;;;;;5.15;2.75;;;9.10;99.90;;;;;;5056455;28;20700;-79
2023/11/13 01:37:08;;;;;;;4.10;2.50;;;9.10;99.90;;;;;;5054933;28;20207;-78
2023/11/13 01:39:35;;;;;;;3.77;2.30;;;9.10;99.90;;;;;;5062967;28;20220;-78
2023/11/13 01:42:01;;;;;;;5.82;2.70;;;9.20;99.90;;;;;;5041353;28;20180;-78
2023/11/13 01:44:26;;;;;;;4.37;3.47;;;9.20;99.90;;;;;;5053798;28;20225;-78
2023/11/13 01:46:53;;;;;;;6.37;3.00;;;9.20;99.90;;;;;;5054287;28;20184;-78
2023/11/13 01:49:19;;;;;;;3.30;2.45;;;9.20;99.90;;;;;;5072661;28;20590;-78
2023/11/13 01:51:47;;;;;;;8.75;4.38;;;9.20;99.90;;;;;;5054532;28;20188;-79
2023/11/13 01:54:15;;;;;;;4.03;2.55;;;9.20;99.90;;;;;;5054008;28;20554;-78
2023/11/13 01:56:43;;;;;;;3.67;2.53;;;9.10;99.90;;;;;;5053603;28;20271;-78
2023/11/13 01:59:12;;;;;;;3.67;2.60;;;9.20;99.90;;;;;;5057218;28;20188;-78
2023/11/13 02:01:38;;;;;;;5.90;2.70;;;9.20;99.90;;;;;;5037141;28;20198;-78
2023/11/13 02:04:04;;;;;;;5.50;2.53;;;9.10;99.90;;;;;;5053820;28;20179;-79
2023/11/13 02:06:30;;;;;;;5.27;2.60;;;9.10;99.90;;;;;;5037206;28;20287;-79
2023/11/13 02:08:56;;;;;;;3.75;2.35;;;9.10;99.90;;;;;;5053524;28;20674;-79
2023/11/13 02:11:22;;;;;;;2.60;2.27;;;9.10;99.90;;;;;;5054367;28;20264;-79
2023/11/13 02:13:49;;;;;;;3.78;2.60;;;9.10;99.90;;;;;;5053975;28;20535;-78
2023/11/13 02:16:15;;;;;;;4.25;2.80;;;9.10;99.90;;;;;;5053297;28;20214;-78
2023/11/13 02:18:41;;;;;;;4.50;3.30;;;9.10;99.90;;;;;;5068792;28;20251;-78
2023/11/13 02:21:07;;;;;;;5.35;2.97;;;9.10;99.90;;;;;;5052961;28;20653;-79
2023/11/13 02:23:33;;;;;;;5.23;3.00;;;9.00;99.90;;;;;;5053407;28;20176;-79
2023/11/13 02:26:03;;;;;;;3.87;2.60;;;9.00;99.90;;;;;;5036572;28;20623;-79
2023/11/13 02:28:29;;;;;;;3.28;2.42;;;9.00;99.90;;;;;;5053508;28;20245;-79
2023/11/13 02:30:55;;;;;;;3.47;2.25;;;9.00;99.90;;;;;;5036234;28;20229;-79
2023/11/13 02:33:22;;;;;;;4.53;2.57;;;9.00;99.90;;;;;;5036738;28;20207;-79
2023/11/13 02:35:47;;;;;;;4.82;2.80;;;8.90;99.90;;;;;;5039498;28;20214;-79
2023/11/13 02:38:13;;;;;;;3.17;2.23;;;9.00;99.90;;;;;;5053104;28;20180;-79
2023/11/13 02:40:39;;;;;;;3.80;2.50;;;9.00;99.90;;;;;;5052262;28;20252;-79
2023/11/13 02:43:05;;;;;;;3.20;2.43;;;9.10;99.90;;;;;;5053174;28;20176;-78
2023/11/13 02:45:30;;;;;;;3.95;1.85;;;9.10;99.90;;;;;;5036347;28;20242;-79
2023/11/13 02:47:56;;;;;;;3.23;1.90;;;9.10;99.90;;;;;;5071076;28;20172;-78
2023/11/13 02:50:24;;;;;;;2.73;1.87;;;9.10;99.90;;;;;;5052754;28;20184;-78
2023/11/13 02:52:49;;;;;;;4.00;2.47;;;9.10;99.90;;;;;;5069726;28;20175;-78
2023/11/13 02:55:16;;;;;;;3.33;2.10;;;9.10;99.90;;;;;;5036216;28;20828;-79
2023/11/13 02:57:41;;;;;;;3.85;2.50;;;9.10;99.90;;;;;;5053106;28;20254;-79
2023/11/13 03:00:09;;;;;;;4.00;3.20;;;9.10;99.90;;;;;;5071004;28;20203;-79
2023/11/13 03:02:35;;;;;;;3.30;2.35;;;9.10;99.90;;;;;;5036358;28;20176;-79
2023/11/13 03:05:01;;;;;;;5.20;2.50;;;9.10;99.90;;;;;;5052815;28;20200;-79
2023/11/13 03:07:27;;;;;;;4.60;2.33;;;9.20;99.90;;;;;;5036403;28;20661;-79
2023/11/13 03:09:55;;;;;;;4.25;2.83;;;9.20;99.90;;;;;;5036349;28;20728;-79
2023/11/13 03:12:22;;;;;;;5.78;2.97;;;9.20;99.90;;;;;;5036222;28;20173;-79
2023/11/13 03:14:51;;;;;;;2.40;2.00;;;9.20;99.90;;;;;;5054862;28;20675;-79
2023/11/13 03:17:18;;;;;;;5.70;2.95;;;9.20;99.90;;;;;;5070443;28;20191;-78
2023/11/13 03:19:44;;;;;;;4.82;3.15;;;9.20;99.90;;;;;;5052755;28;20231;-79
2023/11/13 03:22:11;;;;;;;5.28;3.25;;;9.20;99.90;;;;;;5052280;28;20669;-79
2023/11/13 03:24:38;;;;;;;5.60;3.00;;;9.20;99.90;;;;;;5054555;28;20199;-79
2023/11/13 03:27:04;;;;;;;4.90;3.40;;;9.20;99.90;;;;;;5052389;28;20256;-79
2023/11/13 03:29:30;;;;;;;7.40;3.20;;;9.20;99.90;;;;;;5035819;28;20181;-80
2023/11/13 03:31:56;;;;;;;5.25;3.22;;;9.20;99.90;;;;;;5041177;28;20187;-79
2023/11/13 03:34:21;;;;;;;3.30;2.93;;;9.20;99.90;;;;;;5070353;28;20172;-79
2023/11/13 03:36:47;;;;;;;5.20;3.00;;;9.20;99.90;;;;;;5070458;28;20176;-78
2023/11/13 03:39:13;;;;;;;4.50;3.13;;;9.20;99.90;;;;;;5052424;28;20169;-78
2023/11/13 03:41:40;;;;;;;5.40;3.05;;;9.10;99.90;;;;;;5070076;28;20583;-79
2023/11/13 03:44:06;;;;;;;5.55;2.97;;;9.10;99.90;;;;;;5052406;28;20182;-79
2023/11/13 03:46:32;;;;;;;3.30;2.15;;;9.10;99.90;;;;;;5035522;28;20188;-79
2023/11/13 03:48:58;;;;;;;3.40;2.27;;;9.10;99.90;;;;;;5035688;28;20179;-79
2023/11/13 03:51:24;;;;;;;6.27;2.57;;;9.10;99.90;;;;;;5055960;28;20594;-79
2023/11/13 03:53:53;;;;;;;2.95;2.25;;;9.10;99.90;;;;;;5072868;28;20225;-79
2023/11/13 03:56:22;;;;;;;2.70;1.95;;;9.10;99.90;;;;;;5039212;28;20646;-80
2023/11/13 03:58:48;;;;;;;4.22;2.08;;;9.10;99.90;;;;;;5039431;28;20168;-80
2023/11/13 04:01:16;;;;;;;3.92;2.70;;;9.10;99.90;;;;;;5072525;28;20200;-80
2023/11/13 04:03:41;;;;;;;4.45;3.05;;;9.10;99.90;;;;;;5055824;28;20179;-81
2023/11/13 04:06:07;;;;;;;3.67;2.73;;;9.10;99.90;;;;;;5055780;28;20621;-82
2023/11/13 04:08:33;;;;;;;4.70;3.00;;;9.10;99.90;;;;;;5039233;28;20586;-81
2023/11/13 04:10:59;;;;;;;3.67;3.17;;;9.20;99.90;;;;;;5055682;28;20184;-81
2023/11/13 04:13:27;;;;;;;3.80;2.95;;;9.10;99.90;;;;;;5031620;28;20191;-81
2023/11/13 04:15:53;;;;;;;2.63;2.33;;;9.10;99.90;;;;;;5029103;28;20207;-81
2023/11/13 04:18:19;;;;;;;3.23;2.80;;;9.10;99.90;;;;;;5055738;28;20249;-81
2023/11/13 04:20:44;;;;;;;3.80;2.50;;;9.10;99.90;;;;;;5073225;28;20192;-81
2023/11/13 04:23:10;;;;;;;6.20;2.50;;;9.10;99.90;;;;;;5039014;28;20644;-81
2023/11/13 04:25:36;;;;;;;2.77;1.97;;;9.20;99.90;;;;;;5055483;28;20200;-82
2023/11/13 04:28:02;;;;;;;3.60;3.13;;;9.20;99.90;;;;;;5077454;28;20191;-81
2023/11/13 04:30:27;;;;;;;3.57;2.20;;;9.20;99.90;;;;;;5073114;28;20265;-81
2023/11/13 04:32:53;;;;;;;4.43;3.03;;;9.30;99.90;;;;;;5070203;28;20169;-81
2023/11/13 04:35:19;;;;;;;3.17;2.50;;;9.30;99.90;;;;;;5072931;28;20659;-81
2023/11/13 04:37:45;;;;;;;4.00;3.47;;;9.30;99.90;;;;;;5038398;28;21148;-81
2023/11/13 04:40:11;;;;;;;3.67;3.08;;;9.40;99.90;;;;;;5073209;28;20338;-81
2023/11/13 04:42:38;;;;;;;4.00;3.60;;;9.40;99.90;;;;;;5055109;28;20225;-81
2023/11/13 04:45:04;;;;;;;5.07;4.05;;;9.40;99.90;;;;;;5067493;28;20218;-81
2023/11/13 04:47:30;;;;;;;4.95;3.10;;;9.40;99.90;;;;;;5054300;28;20175;-81
2023/11/13 04:49:57;;;;;;;3.65;3.22;;;9.40;99.90;;;;;;5055276;28;20172;-79
2023/11/13 04:52:23;;;;;;;6.22;3.15;;;9.40;99.90;;;;;;5054695;28;20180;-80
2023/11/13 04:54:49;;;;;;;6.75;3.70;;;9.40;99.90;;;;;;5054855;28;20188;-79
2023/11/13 04:57:15;;;;;;;5.82;4.75;;;9.40;99.90;;;;;;5038379;28;20211;-79
2023/11/13 04:59:40;;;;;;;3.03;2.73;;;9.40;99.90;;;;;;5055030;28;20223;-79
2023/11/13 05:02:07;;;;;;;5.53;3.60;;;9.40;99.90;;;;;;5072687;28;20199;-79
2023/11/13 05:04:33;;;;;;;5.00;3.17;;;9.40;99.90;;;;;;5058401;28;20188;-79
2023/11/13 05:06:59;;;;;;;3.70;3.10;;;9.40;99.90;;;;;;5073307;28;20768;-79
2023/11/13 05:09:26;;;;;;;5.00;2.70;;;9.50;99.90;;;;;;5071738;28;20594;-80
2023/11/13 05:11:52;;;;;;;3.55;3.20;;;9.50;99.90;;;;;;5054694;28;20586;-80
2023/11/13 05:14:18;;;;;;;2.63;2.42;;;9.50;99.90;;;;;;5072655;28;20188;-80
2023/11/13 05:16:44;;;;;;;3.50;2.60;;;9.50;99.90;;;;;;5072741;28;20642;-80
2023/11/13 05:19:09;;;;;;;2.87;2.47;;;9.60;99.90;;;;;;5054644;28;20606;-79
2023/11/13 05:21:35;;;;;;;4.87;3.17;;;9.60;99.90;;;;;;5071104;28;20594;-80
2023/11/13 05:24:01;;;;;;;4.67;3.40;;;9.60;99.90;;;;;;5054556;28;20579;-80
2023/11/13 05:26:27;;;;;;;3.23;2.70;;;9.60;99.90;;;;;;5071105;28;20196;-80
2023/11/13 05:28:54;;;;;;;4.63;3.37;;;9.70;99.90;;;;;;5054625;28;20164;-81
2023/11/13 05:31:20;;;;;;;5.95;3.08;;;9.60;99.90;;;;;;5072343;28;20586;-80
2023/11/13 05:33:46;;;;;;;4.77;2.90;;;9.60;99.90;;;;;;5054602;28;20294;-80
2023/11/13 05:36:12;;;;;;;8.63;2.92;;;9.70;99.90;;;;;;5072822;28;20835;-80
2023/11/13 05:38:42;;;;;;;3.40;3.07;;;9.60;99.90;;;;;;5071315;28;20255;-80
2023/11/13 05:41:07;;;;;;;7.82;2.67;;;9.70;99.90;;;;;;5056385;28;20200;-80
2023/11/13 05:43:34;;;;;;;3.10;2.33;;;9.70;99.90;;;;;;5074495;28;20179;-80
2023/11/13 05:46:01;;;;;;;6.38;3.08;;;9.70;99.90;;;;;;5054563;28;20196;-80
2023/11/13 05:48:27;;;;;;;3.28;2.80;;;9.70;99.90;;;;;;5071582;28;20200;-80
2023/11/13 05:50:52;;;;;;;3.60;2.90;;;9.80;99.90;;;;;;5074296;28;20183;-80
2023/11/13 05:53:19;;;;;;;3.73;2.80;;;9.80;99.90;;;;;;5056189;28;20233;-81
2023/11/13 05:55:45;;;;;;;2.72;2.13;;;9.80;99.90;;;;;;5053565;28;20196;-81
2023/11/13 05:58:11;;;;;;;4.85;3.20;;;9.80;99.90;;;;;;5053984;28;20168;-81
2023/11/13 06:00:37;;;;;;;3.60;3.00;;;9.80;99.90;;;;;;5071299;28;20282;-81
2023/11/13 06:03:02;;;;;;;3.40;2.27;;;9.80;99.90;;;;;;5053930;28;20583;-80
2023/11/13 06:05:28;;;;;;;4.03;1.93;;;9.80;99.90;;;;;;5054088;28;20198;-81
2023/11/13 06:07:54;;;;;;;3.33;2.92;;;9.80;99.90;;;;;;5054601;28;20229;-81
2023/11/13 06:10:21;;;;;;;4.40;2.50;;;9.80;99.90;;;;;;5054138;28;20180;-81
2023/11/13 06:12:46;;;;;;;2.65;2.30;;;9.80;99.90;;;;;;5072387;28;20915;-81
2023/11/13 06:15:16;;;;;;;4.40;2.83;;;9.80;99.90;;;;;;5053171;28;20361;-81
2023/11/13 06:17:44;;;;;;;2.88;2.10;;;9.80;99.90;;;;;;5047069;28;20685;-81
2023/11/13 06:20:14;;;;;;;4.05;3.08;;;9.80;99.90;;;;;;5058255;28;20196;-81
2023/11/13 06:22:44;;;;;;;4.28;2.72;;;9.80;99.90;;;;;;5053580;28;20234;-81
2023/11/13 06:25:11;;;;;;;3.40;2.65;;;9.80;99.90;;;;;;5053405;28;20552;-81
2023/11/13 06:27:38;;;;;;;3.35;2.47;;;9.80;99.90;;;;;;5070992;28;20179;-81
2023/11/13 06:30:05;;;;;;;3.55;2.38;;;9.80;99.90;;;;;;5071575;28;20176;-81
2023/11/13 06:32:31;;;;;;;5.25;3.47;;;9.80;99.90;;;;;;5071054;28;20179;-80
2023/11/13 06:34:57;;;;;;;7.95;4.43;;;9.80;99.90;;;;;;5053239;28;20200;-81
2023/11/13 06:37:23;;;;;;;7.70;4.60;;;9.90;99.90;;;;;;5053866;28;20183;-81
2023/11/13 06:39:49;;;;;;;7.85;5.40;;;9.80;99.90;;;;;;5053916;28;20634;-81
2023/11/13 06:42:15;;;;;;;7.90;5.37;;;9.90;99.90;;;;;;5074788;28;20164;-80
2023/11/13 06:44:41;;;;;;;12.50;6.53;;;9.90;99.90;;;;;;5063588;28;20195;-80
2023/11/13 06:47:07;;;;;;;15.13;7.20;;;9.90;99.90;;;;;;5067993;28;20626;-80
2023/11/13 06:49:38;;;;;;;11.52;6.65;;;10.00;99.90;;;;;;5060892;28;20176;-81
2023/11/13 06:52:06;;;;;;;11.50;6.97;;;10.10;99.90;;;;;;5074168;28;20172;-81
2023/11/13 06:54:31;;;;;;;9.05;5.10;;;10.10;99.90;;;;;;5055314;28;20263;-80
2023/11/13 06:56:57;;;;;;;8.40;3.97;;;10.10;99.90;;;;;;5074906;28;20642;-80
2023/11/13 06:59:24;;;;;;;5.80;4.15;;;10.20;99.90;;;;;;5056484;28;20204;-81
2023/11/13 07:01:51;;;;;;;10.65;4.97;;;10.20;99.90;;;;;;5072373;28;20642;-81
2023/11/13 07:04:16;;;;;;;12.60;6.10;;;10.30;99.90;;;;;;5071842;28;20168;-81
2023/11/13 07:06:44;;;;;;;10.60;5.40;;;10.30;99.90;;;;;;5056033;28;20645;-81
2023/11/13 07:09:13;;;;;;;12.32;7.57;;;10.30;99.90;;;;;;5056914;28;20294;-81
2023/11/13 07:11:47;;;;;;;9.18;5.55;;;10.30;99.90;;;;;;5059386;28;20219;-80
2023/11/13 07:14:15;;;;;;;9.73;6.15;;;10.40;99.90;;;;;;5043918;28;20217;-80
2023/11/13 07:16:41;;;;;;;11.45;5.75;;;10.40;99.90;;;;;;5077947;28;20185;-80
2023/11/13 07:19:07;;;;;;;10.65;6.50;;;10.40;99.90;;;;;;5073654;28;20255;-80
2023/11/13 07:21:35;;;;;;;14.57;6.70;;;10.40;99.90;;;;;;5076720;28;20309;-78
2023/11/13 07:24:06;;;;;;;14.32;6.28;;;10.40;99.90;;;;;;5056144;28;20164;-78
2023/11/13 07:26:32;;;;;;;10.88;6.13;;;10.40;99.90;;;;;;5071710;28;20195;-78
2023/11/13 07:28:58;;;;;;;11.13;6.15;;;10.40;99.90;;;;;;5056868;28;20748;-78
2023/11/13 07:31:24;;;;;;;10.80;4.40;;;10.50;99.90;;;;;;5057382;28;20241;-78
2023/11/13 07:33:50;;;;;;;6.23;2.90;;;10.50;99.90;;;;;;5081718;28;20621;-79
2023/11/13 07:36:16;;;;;;;9.65;2.75;;;10.50;99.90;;;;;;5074499;28;20645;-79
2023/11/13 07:38:43;;;;;;;8.25;2.50;;;10.50;99.90;;;;;;5056239;28;20222;-79
2023/11/13 07:41:11;;;;;;;3.92;2.10;;;10.50;99.90;;;;;;5055827;28;20572;-79
2023/11/13 07:43:41;;;;;;;4.05;2.38;;;10.50;99.90;;;;;;5056164;28;20337;-79
2023/11/13 07:46:07;;;;;;;4.22;2.17;;;10.50;99.90;;;;;;5055459;28;20245;-78
2023/11/13 07:48:37;;;;;;;7.43;2.80;;;10.60;99.90;;;;;;5074281;28;20209;-79
2023/11/13 07:51:04;;;;;;;6.35;2.53;;;10.60;99.90;;;;;;5060904;28;20651;-79
2023/11/13 07:53:31;;;;;;;3.95;1.95;;;10.60;99.90;;;;;;5060824;28;20180;-79
2023/11/13 07:55:56;;;;;;;4.10;2.28;;;10.70;99.90;;;;;;5059816;28;20220;-79
2023/11/13 07:58:23;;;;;;;5.00;2.50;;;10.70;99.90;;;;;;5078699;28;20188;-79
2023/11/13 08:00:53;;;;;;;2.20;1.67;;;10.80;99.90;;;;;;5059268;28;20204;-79
2023/11/13 08:03:28;;;;;;;4.07;1.67;;;10.80;99.90;;;;;;5060042;28;20179;-79
2023/11/13 08:05:53;;;;;;;6.78;1.55;;;10.90;99.90;;;;;;5076621;28;20191;-80
2023/11/13 08:08:19;;;;;;;4.87;1.60;;;10.90;99.90;;;;;;5075546;28;20225;-80
2023/11/13 08:10:46;;;;;;;8.93;2.53;;;11.00;99.90;;;;;;5044247;28;20184;-80
2023/11/13 08:13:16;;;;;;;7.72;2.92;;;11.00;99.90;;;;;;5074828;28;20233;-80
2023/11/13 08:15:42;;;;;;;6.70;2.10;;;11.00;99.90;;;;;;5057029;28;20212;-80
2023/11/13 08:18:14;;;;;;;6.85;2.78;;;11.10;99.90;;;;;;5077532;28;20176;-80
2023/11/13 08:20:43;;;;;;;7.03;2.30;;;11.10;99.90;;;;;;5056327;28;20287;-80
2023/11/13 08:23:10;;;;;;;5.45;2.85;;;11.20;99.90;;;;;;5056957;28;20169;-80
2023/11/13 08:25:44;;;;;;;7.70;2.60;;;11.20;99.90;;;;;;5074343;28;20743;-81
2023/11/13 08:28:11;;;;;;;4.03;2.03;;;11.20;99.90;;;;;;5039931;28;20183;-81
2023/11/13 08:30:41;;;;;;;4.15;1.83;;;11.20;99.90;;;;;;5055676;28;20597;-80
2023/11/13 08:33:07;;;;;;;5.85;2.20;;;11.20;99.90;;;;;;5073590;28;20255;-80
2023/11/13 08:35:34;;;;;;;3.70;2.08;;;11.30;99.90;;;;;;5066382;28;20290;-80
2023/11/13 08:38:00;;;;;;;6.43;2.50;;;11.30;99.90;;;;;;5072630;28;20175;-80
2023/11/13 08:40:29;;;;;;;6.05;1.85;;;11.30;99.90;;;;;;5073000;28;20200;-80
2023/11/13 08:42:56;;;;;;;6.60;2.92;;;11.30;99.90;;;;;;5073321;28;20177;-80
2023/11/13 08:45:23;;;;;;;2.85;1.10;;;11.30;99.90;;;;;;5073117;28;20199;-80
2023/11/13 08:47:53;;;;;;;4.07;1.65;;;11.30;99.90;;;;;;5059086;28;20226;-80
2023/11/13 08:50:21;;;;;;;6.20;1.40;;;11.40;99.90;;;;;;5055261;28;20187;-80
2023/11/13 08:52:48;;;;;;;4.05;1.63;;;11.40;99.90;;;;;;5054844;28;20192;-80
2023/11/13 08:55:17;;;;;;;3.15;1.42;;;11.40;99.90;;;;;;5073788;28;20223;-77
2023/11/13 08:57:46;;;;;;;7.07;1.90;;;11.40;99.90;;;;;;5072535;28;20247;-76
2023/11/13 09:00:24;;;;;;;4.15;1.35;;;11.40;99.90;;;;;;5054646;28;20258;-76
2023/11/13 09:02:56;;;;;;;6.18;1.55;;;11.40;99.90;;;;;;5072147;28;20176;-76
2023/11/13 09:05:26;;;;;;;7.93;1.88;;;11.50;99.90;;;;;;5072611;28;20198;-76
2023/11/13 09:07:53;;;;;;;2.88;1.30;;;11.50;99.90;;;;;;5054530;28;20219;-77
2023/11/13 09:10:26;;;;;;;5.45;1.58;;;11.50;99.90;;;;;;5071737;28;20179;-76
2023/11/13 09:12:55;;;;;;;2.90;1.15;;;11.50;99.90;;;;;;5054456;28;20317;-77
2023/11/13 09:15:22;;;;;;;5.60;1.80;;;11.50;99.90;;;;;;5054152;28;20294;-76
2023/11/13 09:17:48;;;;;;;4.30;1.38;;;11.50;99.90;;;;;;5054267;28;20183;-76
2023/11/13 09:20:20;;;;;;;3.67;1.27;;;11.60;99.90;;;;;;5021054;28;20210;-77
2023/11/13 09:22:50;;;;;;;4.65;1.20;;;11.60;99.90;;;;;;5054403;28;20181;-77
2023/11/13 09:25:17;;;;;;;5.68;1.10;;;11.60;99.90;;;;;;5076636;28;20208;-75
2023/11/13 09:27:47;;;;;;;5.97;1.90;;;11.70;99.90;;;;;;5072145;28;20176;-76
2023/11/13 09:30:15;;;;;;;4.47;1.45;;;11.70;99.90;;;;;;5071984;28;20172;-76
2023/11/13 09:32:44;;;;;;;4.57;1.63;;;11.70;99.90;;;;;;5053838;28;20177;-76
2023/11/13 09:35:18;;;;;;;4.00;1.23;;;11.70;99.90;;;;;;5071944;28;20208;-76
2023/11/13 09:37:53;;;;;;;5.70;1.90;;;11.70;99.90;;;;;;5071818;28;20180;-75
2023/11/13 09:40:34;;;;;;;4.32;1.25;;;11.70;99.90;;;;;;5071639;28;20245;-76
2023/11/13 09:43:22;;;;;;;2.90;1.23;;;11.70;99.90;;;;;;5071962;28;20554;-76
2023/11/13 09:45:55;;;;;;;2.30;1.38;;;11.70;99.90;;;;;;5053424;28;20211;-76
2023/11/13 09:48:29;;;;;;;2.45;1.25;;;11.70;99.90;;;;;;5042592;28;20693;-76
2023/11/13 09:50:58;;;;;;;2.97;1.38;;;11.70;99.90;;;;;;5071249;28;20194;-76
2023/11/13 09:53:26;;;;;;;2.50;1.27;;;11.60;99.90;;;;;;5053798;28;20180;-76
2023/11/13 09:55:53;;;;;;;3.58;1.13;;;11.70;99.90;;;;;;5053381;28;20196;-76
2023/11/13 09:58:19;;;;;;;2.78;1.70;;;11.60;99.90;;;;;;5053034;28;20180;-76
2023/11/13 10:00:45;;;;;;;4.53;1.30;;;11.60;99.90;;;;;;5053586;28;20195;-75
2023/11/13 10:03:14;;;;;;;5.82;1.50;;;11.60;99.90;;;;;;5055922;28;20180;-76
2023/11/13 10:05:44;;;;;;;5.30;1.38;;;11.60;99.90;;;;;;5071119;28;20203;-76
2023/11/13 10:08:11;;;;;;;3.75;1.40;;;11.60;99.90;;;;;;5053363;28;20259;-76
2023/11/13 10:10:40;;;;;;;3.25;1.20;;;11.70;99.90;;;;;;5071003;28;20180;-76
2023/11/13 10:13:10;;;;;;;4.15;1.25;;;11.70;99.90;;;;;;5070888;28;20164;-76
2023/11/13 10:15:36;;;;;;;4.35;1.40;;;11.70;99.90;;;;;;5039956;28;20588;-76
2023/11/13 10:18:12;;;;;;;4.22;1.15;;;11.70;99.90;;;;;;5053282;28;20179;-76
2023/11/13 10:20:46;;;;;;;5.03;1.23;;;11.70;99.90;;;;;;5039570;28;20211;-76
2023/11/13 10:23:14;;;;;;;6.95;1.30;;;11.80;99.90;;;;;;5053189;28;20267;-76
2023/11/13 10:25:52;;;;;;;4.32;1.75;;;11.80;99.90;;;;;;5045131;28;20203;-76
2023/11/13 10:28:21;;;;;;;2.88;1.35;;;11.80;99.90;;;;;;5071052;28;20184;-75
2023/11/13 10:30:53;;;;;;;3.20;1.15;;;11.80;99.90;;;;;;5070619;28;20589;-76
2023/11/13 10:33:19;;;;;;;3.33;1.55;;;11.90;99.90;;;;;;5053078;28;20169;-75
2023/11/13 10:35:48;;;;;;;2.90;1.10;;;11.90;99.90;;;;;;5070574;28;20207;-76
2023/11/13 10:38:14;;;;;;;4.60;1.02;;;12.00;99.90;;;;;;5039932;28;20180;-76
2023/11/13 10:40:55;;;;;;;5.35;1.60;;;12.00;99.90;;;;;;5070666;28;20229;-75
2023/11/13 10:43:31;;;;;;;2.55;1.17;;;12.00;99.90;;;;;;5052900;28;20187;-76
2023/11/13 10:45:59;;;;;;;2.33;1.23;;;12.00;99.90;;;;;;5052809;28;20199;-77
2023/11/13 10:48:42;;;;;;;7.75;2.00;;;12.10;99.90;;;;;;5052722;28;20160;-76
2023/11/13 10:51:09;;;;;;;3.08;1.60;;;12.10;99.90;;;;;;5070524;28;20206;-76
2023/11/13 10:53:42;;;;;;;4.43;1.73;;;12.20;99.90;;;;;;5036193;28;20184;-76
2023/11/13 10:56:13;;;;;;;3.08;1.10;;;12.30;99.90;;;;;;5052481;28;20610;-76
2023/11/13 10:58:40;;;;;;;2.90;1.23;;;12.30;99.90;;;;;;5052791;28;20501;-76
2023/11/13 11:01:12;;;;;;;3.87;1.63;;;12.30;99.90;;;;;;5069784;28;20530;-76
2023/11/13 11:03:45;;;;;;;4.00;1.10;;;12.30;99.90;;;;;;5052541;28;20586;-76
2023/11/13 11:06:16;;;;;;;2.53;1.37;;;12.30;99.90;;;;;;5051529;28;20617;-76
2023/11/13 11:08:44;;;;;;;3.42;1.55;;;12.40;99.90;;;;;;5070297;28;20575;-76
2023/11/13 11:11:12;;;;;;;3.80;1.70;;;12.40;99.90;;;;;;5052347;28;20172;-76
2023/11/13 11:13:45;;;;;;;3.00;1.30;;;12.40;99.90;;;;;;5044635;28;21015;-77
2023/11/13 11:16:31;;;;;;;2.53;1.80;;;12.50;99.90;;;;;;5055728;28;20634;-77
2023/11/13 11:19:18;;;;;;;2.37;1.00;;;12.50;99.90;;;;;;5067524;28;20953;-77
2023/11/13 11:21:47;;;;;;;2.13;0.90;;;12.50;99.90;;;;;;5066664;28;21006;-77
2023/11/13 11:24:38;;;;;;;2.75;1.25;;;12.60;99.90;;;;;;5051901;28;20685;-77
2023/11/13 11:27:04;;;;;;;4.30;1.40;;;12.60;99.90;;;;;;5069909;28;20180;-77
2023/11/13 11:29:42;;;;;;;4.67;1.80;;;12.70;99.90;;;;;;5070149;28;20632;-76
2023/11/13 11:32:14;;;;;;;1.87;1.00;;;12.70;99.90;;;;;;5061870;28;20633;-77
2023/11/13 11:34:42;;;;;;;2.90;1.13;;;12.70;99.90;;;;;;5051911;28;20640;-76
2023/11/13 11:37:16;;;;;;;3.80;1.40;;;12.80;99.90;;;;;;5035486;28;20681;-77
2023/11/13 11:39:50;;;;;;;7.87;1.97;;;12.80;99.90;;;;;;5070087;28;21299;-77
2023/11/13 11:42:22;;;;;;;3.63;1.30;;;12.80;99.90;;;;;;5070108;28;20729;-77
2023/11/13 11:44:53;;;;;;;5.20;1.67;;;12.90;99.90;;;;;;5052104;28;20725;-77
2023/11/13 11:47:24;;;;;;;5.17;2.30;;;12.90;99.90;;;;;;5070020;28;20597;-77
2023/11/13 11:49:50;;;;;;;5.87;4.20;;;12.90;99.90;;;;;;5052006;28;20630;-77
2023/11/13 11:52:17;;;;;;;6.10;2.97;;;12.90;99.90;;;;;;5071595;28;20626;-77
2023/11/13 11:54:43;;;;;;;4.20;1.90;;;13.00;99.90;;;;;;5070402;28;20204;-77
2023/11/13 11:57:10;;;;;;;3.90;1.70;;;13.00;99.90;;;;;;5069208;28;20593;-77
2023/11/13 11:59:36;;;;;;;4.50;1.60;;;13.10;99.90;;;;;;5069737;28;20657;-76
2023/11/13 12:02:03;;;;;;;2.50;1.27;;;13.10;99.90;;;;;;5069522;28;20579;-76
2023/11/13 12:04:33;;;;;;;2.50;1.10;;;13.20;99.90;;;;;;5035036;28;20582;-76
2023/11/13 12:07:09;;;;;;;2.60;1.33;;;13.20;99.90;;;;;;5051740;28;20609;-76
2023/11/13 12:09:44;;;;;;;4.80;1.30;;;13.20;99.90;;;;;;5069869;28;20937;-76
2023/11/13 12:12:11;;;;;;;2.40;1.30;;;13.20;99.90;;;;;;5061599;28;20596;-77
2023/11/13 12:14:37;;;;;;;3.57;1.70;;;13.30;99.90;;;;;;5055182;28;21223;-77
2023/11/13 12:17:07;;;;;;;3.70;1.73;;;13.30;99.90;;;;;;5073296;28;20649;-77
2023/11/13 12:19:33;;;;;;;4.30;2.30;;;13.40;99.90;;;;;;5055063;28;20985;-76
2023/11/13 12:21:58;;;;;;;3.53;2.10;;;13.40;99.90;;;;;;5055058;28;20574;-77
2023/11/13 12:24:25;;;;;;;4.60;1.93;;;13.40;99.90;;;;;;5071885;28;21170;-76
2023/11/13 12:26:56;;;;;;;3.10;1.10;;;13.50;99.90;;;;;;5055231;28;20182;-76
2023/11/13 12:29:22;;;;;;;2.60;1.20;;;13.40;99.90;;;;;;5070659;28;20673;-76
2023/11/13 12:31:56;;;;;;;5.63;3.10;;;13.50;99.90;;;;;;5074417;28;20627;-76
2023/11/13 12:34:22;;;;;;;6.77;5.27;;;13.40;99.90;;;;;;5073140;28;20578;-76
2023/11/13 12:36:49;;;;;;;8.37;5.00;;;13.40;99.90;;;;;;5054583;28;20582;-76
2023/11/13 12:39:19;;;;;;;6.67;2.50;;;13.40;99.90;;;;;;5072871;28;20902;-76
2023/11/13 12:41:46;;;;;;;3.30;2.40;;;13.40;99.90;;;;;;5072637;28;20593;-75
2023/11/13 12:44:15;;;;;;;3.50;1.37;;;13.40;99.90;;;;;;5072877;28;20633;-76
2023/11/13 12:46:46;;;;;;;6.73;3.27;;;13.40;99.90;;;;;;5072567;28;20698;-76
2023/11/13 12:49:13;;;;;;;5.10;2.70;;;13.40;99.90;;;;;;5054691;28;20594;-75
2023/11/13 12:51:40;;;;;;;4.50;2.10;;;13.40;99.90;;;;;;5072556;28;20589;-75
2023/11/13 12:54:12;;;;;;;4.43;1.77;;;13.40;99.90;;;;;;5037646;28;20621;-75
2023/11/13 12:56:46;;;;;;;4.37;1.73;;;13.50;99.90;;;;;;5054217;28;20664;-75